createdAt,value
2023-01-04T00:01:18.701Z,101939.28
2023-01-04T00:03:47.236Z,101936.59
2023-01-04T00:06:17.539Z,101930.22
2023-01-04T00:08:45.556Z,101919.47
2023-01-04T00:11:15.625Z,101913.25
2023-01-04T00:13:43.432Z,101921.31
2023-01-04T00:16:15.406Z,101915.13
2023-01-04T00:18:43.473Z,101908.09
2023-01-04T00:21:13.457Z,101912.25
2023-01-04T00:23:43.244Z,101890.94
2023-01-04T00:26:12.083Z,101891.78
2023-01-04T00:28:40.258Z,101891.97
2023-01-04T00:31:10.546Z,101875.84
2023-01-04T00:33:40.039Z,101874.19
2023-01-04T00:36:10.541Z,101869.84
2023-01-04T00:38:38.996Z,101861.78
2023-01-04T00:41:07.986Z,101869.00
2023-01-04T00:43:36.020Z,101858.47
2023-01-04T00:46:04.083Z,101854.75
2023-01-04T00:48:33.561Z,101854.75
2023-01-04T00:51:04.897Z,101853.72
2023-01-04T00:53:32.670Z,101852.06
2023-01-04T00:56:01.759Z,101845.84
2023-01-04T00:58:29.611Z,101842.16
2023-01-04T01:00:57.387Z,101834.91
2023-01-04T01:03:25.399Z,101832.25
2023-01-04T01:05:53.243Z,101819.63
2023-01-04T01:08:28.164Z,101843.03
2023-01-04T01:10:56.234Z,101822.75
2023-01-04T01:13:24.517Z,101816.56
2023-01-04T01:15:52.388Z,101823.78
2023-01-04T01:18:20.228Z,101821.75
2023-01-04T01:20:48.322Z,101813.69
2023-01-04T01:23:16.696Z,101818.22
2023-01-04T01:25:45.878Z,101818.22
2023-01-04T01:28:13.694Z,101818.41
2023-01-04T01:30:42.748Z,101822.97
2023-01-04T01:33:11.717Z,101815.72
2023-01-04T01:35:39.539Z,101809.34
2023-01-04T01:38:07.365Z,101813.03
2023-01-04T01:40:35.186Z,101799.63
2023-01-04T01:43:04.341Z,101801.47
2023-01-04T01:45:34.461Z,101796.72
2023-01-04T01:48:11.466Z,101796.94
2023-01-04T01:50:45.556Z,101791.56
2023-01-04T01:53:13.702Z,101787.22
2023-01-04T01:55:42.982Z,101790.09
2023-01-04T01:58:19.246Z,101774.13
2023-01-04T02:00:47.083Z,101788.03
2023-01-04T02:03:19.401Z,101792.38
2023-01-04T02:05:51.073Z,101783.50
2023-01-04T02:08:22.431Z,101788.03
2023-01-04T02:10:50.282Z,101779.97
2023-01-04T02:13:23.637Z,101779.16
2023-01-04T02:16:03.593Z,101774.59
2023-01-04T02:18:35.588Z,101790.53
2023-01-04T02:21:08.423Z,101782.47
2023-01-04T02:24:11.275Z,101777.94
2023-01-04T02:27:20.498Z,101778.75
2023-01-04T02:30:31.877Z,101769.88
2023-01-04T02:33:17.066Z,101787.66
2023-01-04T02:35:54.518Z,101777.94
2023-01-04T02:38:29.491Z,101777.09
2023-01-04T02:41:06.506Z,101782.47
2023-01-04T02:43:57.699Z,101772.38
2023-01-04T02:46:37.442Z,101762.66
2023-01-04T02:49:24.044Z,101756.25
2023-01-04T02:51:51.917Z,101744.66
2023-01-04T02:54:25.145Z,101743.84
2023-01-04T02:57:18.999Z,101739.50
2023-01-04T03:00:03.966Z,101740.97
2023-01-04T03:03:07.622Z,101739.09
2023-01-04T03:06:08.115Z,101720.81
2023-01-04T03:08:40.668Z,101710.84
2023-01-04T03:11:31.127Z,101711.22
2023-01-04T03:14:00.751Z,101712.06
2023-01-04T03:16:30.482Z,101714.75
2023-01-04T03:19:04.220Z,101700.47
2023-01-04T03:21:34.156Z,101683.59
2023-01-04T03:24:22.641Z,101691.84
2023-01-04T03:27:20.638Z,101685.25
2023-01-04T03:30:13.265Z,101697.06
2023-01-04T03:33:05.642Z,101677.41
2023-01-04T03:35:42.174Z,101689.59
2023-01-04T03:38:34.571Z,101689.97
2023-01-04T03:41:23.502Z,101677.59
2023-01-04T03:44:14.827Z,101683.78
2023-01-04T03:47:04.571Z,101663.53
2023-01-04T03:49:38.209Z,101676.56
2023-01-04T03:52:08.967Z,101674.91
2023-01-04T03:54:40.535Z,101655.88
2023-01-04T03:57:10.575Z,101656.91
2023-01-04T03:59:42.833Z,101656.91
2023-01-04T04:02:14.075Z,101639.78
2023-01-04T04:05:00.099Z,101639.78
2023-01-04T04:07:45.262Z,101655.06
2023-01-04T04:10:14.494Z,101640.78
2023-01-04T04:12:42.260Z,101650.72
2023-01-04T04:15:11.054Z,101647.19
2023-01-04T04:17:38.870Z,101639.13
2023-01-04T04:20:07.605Z,101632.94
2023-01-04T04:22:35.677Z,101630.06
2023-01-04T04:25:03.424Z,101626.34
2023-01-04T04:27:32.807Z,101620.75
2023-01-04T04:30:00.747Z,101624.28
2023-01-04T04:32:28.518Z,101625.09
2023-01-04T04:34:56.256Z,101619.72
2023-01-04T04:37:25.268Z,101612.50
2023-01-04T04:39:53.099Z,101578.59
2023-01-04T04:42:19.884Z,101598.25
2023-01-04T04:44:49.000Z,101596.19
2023-01-04T04:47:16.928Z,101592.66
2023-01-04T04:49:44.718Z,101587.09
2023-01-04T04:52:12.488Z,101587.91
2023-01-04T04:54:40.314Z,101584.19
2023-01-04T04:57:08.101Z,101595.97
2023-01-04T04:59:37.604Z,101581.53
2023-01-04T05:02:07.222Z,101576.16
2023-01-04T05:04:35.174Z,101579.47
2023-01-04T05:07:07.533Z,101574.09
2023-01-04T05:09:38.657Z,101575.94
2023-01-04T05:12:24.507Z,101568.28
2023-01-04T05:14:52.311Z,101578.00
2023-01-04T05:17:21.434Z,101570.78
2023-01-04T05:19:49.197Z,101575.13
2023-01-04T05:22:16.982Z,101567.88
2023-01-04T05:24:44.829Z,101566.03
2023-01-04T05:27:12.641Z,101565.00
2023-01-04T05:30:03.081Z,101565.19
2023-01-04T05:32:32.211Z,101558.59
2023-01-04T05:35:00.021Z,101555.91
2023-01-04T05:37:27.814Z,101549.69
2023-01-04T05:39:55.625Z,101557.34
2023-01-04T05:42:26.537Z,101544.94
2023-01-04T05:44:54.903Z,101558.38
2023-01-04T05:47:23.073Z,101545.78
2023-01-04T05:49:52.245Z,101536.06
2023-01-04T05:52:20.822Z,101537.91
2023-01-04T05:54:48.885Z,101540.19
2023-01-04T05:57:17.266Z,101528.63
2023-01-04T05:59:45.359Z,101529.22
2023-01-04T06:02:18.279Z,101534.81
2023-01-04T06:04:46.167Z,101520.56
2023-01-04T06:07:15.940Z,101535.66
2023-01-04T06:09:43.812Z,101529.66
2023-01-04T06:12:12.291Z,101536.47
2023-01-04T06:14:40.408Z,101540.19
2023-01-04T06:17:09.352Z,101525.09
2023-01-04T06:19:37.405Z,101547.41
2023-01-04T06:22:05.639Z,101539.56
2023-01-04T06:24:35.410Z,101536.03
2023-01-04T06:27:03.817Z,101540.59
2023-01-04T06:29:31.618Z,101526.94
2023-01-04T06:31:59.537Z,101536.88
2023-01-04T06:34:31.088Z,101536.03
2023-01-04T06:36:59.574Z,101535.84
2023-01-04T06:39:27.359Z,101523.22
2023-01-04T06:42:03.767Z,101518.88
2023-01-04T06:44:33.827Z,101520.34
2023-01-04T06:47:01.582Z,101515.16
2023-01-04T06:49:29.334Z,101521.16
2023-01-04T06:51:57.112Z,101514.75
2023-01-04T06:54:24.898Z,101527.56
2023-01-04T06:56:52.674Z,101521.38
2023-01-04T06:59:21.812Z,101527.16
2023-01-04T07:01:49.644Z,101515.59
2023-01-04T07:04:17.788Z,101516.63
2023-01-04T07:06:45.649Z,101511.03
2023-01-04T07:09:13.424Z,101505.66
2023-01-04T07:11:41.237Z,101500.28
2023-01-04T07:14:09.080Z,101512.91
2023-01-04T07:16:38.401Z,101518.28
2023-01-04T07:19:07.310Z,101491.81
2023-01-04T07:21:35.134Z,101514.16
2023-01-04T07:24:02.921Z,101503.63
2023-01-04T07:26:30.745Z,101485.63
2023-01-04T07:29:17.142Z,101467.63
2023-01-04T07:31:48.608Z,101478.59
2023-01-04T07:34:17.832Z,101474.25
2023-01-04T07:36:45.649Z,101469.50
2023-01-04T07:39:13.670Z,101465.34
2023-01-04T07:41:42.786Z,101469.09
2023-01-04T07:44:11.836Z,101461.84
2023-01-04T07:46:40.525Z,101458.31
2023-01-04T07:49:16.936Z,101465.34
2023-01-04T07:51:46.639Z,101459.34
2023-01-04T07:54:15.007Z,101466.38
2023-01-04T07:56:42.873Z,101466.19
2023-01-04T07:59:12.325Z,101464.13
2023-01-04T08:01:40.617Z,101456.47
2023-01-04T08:04:11.657Z,101464.31
2023-01-04T08:06:41.158Z,101451.72
2023-01-04T08:09:09.168Z,101451.72
2023-01-04T08:11:36.965Z,101449.44
2023-01-04T08:14:05.172Z,101456.66
2023-01-04T08:16:34.845Z,101469.91
2023-01-04T08:19:05.429Z,101459.13
2023-01-04T08:21:36.759Z,101468.44
2023-01-04T08:24:05.521Z,101465.56
2023-01-04T08:26:33.883Z,101476.09
2023-01-04T08:29:01.777Z,101478.78
2023-01-04T08:31:32.921Z,101491.00
2023-01-04T08:34:08.466Z,101486.44
2023-01-04T08:36:45.863Z,101484.38
2023-01-04T08:39:13.736Z,101487.47
2023-01-04T08:42:07.516Z,101486.03
2023-01-04T08:44:39.766Z,101488.09
2023-01-04T08:47:07.566Z,101468.47
2023-01-04T08:49:35.558Z,101486.03
2023-01-04T08:52:05.073Z,101476.50
2023-01-04T08:54:34.007Z,101488.25
2023-01-04T08:57:01.803Z,101489.44
2023-01-04T08:59:29.903Z,101473.25
2023-01-04T09:02:04.882Z,101490.38
2023-01-04T09:04:33.479Z,101489.44
2023-01-04T09:07:01.327Z,101484.13
2023-01-04T09:09:30.933Z,101476.75
2023-01-04T09:11:59.770Z,101480.59
2023-01-04T09:14:27.751Z,101485.94
2023-01-04T09:16:55.586Z,101482.53
2023-01-04T09:19:23.375Z,101478.97
2023-01-04T09:21:51.275Z,101480.94
2023-01-04T09:24:19.403Z,101474.72
2023-01-04T09:26:49.225Z,101473.69
2023-01-04T09:29:17.189Z,101472.19
2023-01-04T09:31:45.013Z,101492.50
2023-01-04T09:34:15.795Z,101489.53
2023-01-04T09:36:45.656Z,101491.16
2023-01-04T09:39:21.535Z,101489.97
2023-01-04T09:41:58.128Z,101486.81
2023-01-04T09:45:21.405Z,101483.63
2023-01-04T09:47:36.665Z,101484.00
2023-01-04T09:50:11.064Z,101478.66
2023-01-04T09:52:50.574Z,101479.56
2023-01-04T09:55:37.504Z,101488.72
2023-01-04T09:58:18.486Z,101497.16
2023-01-04T10:00:48.017Z,101489.84
2023-01-04T10:03:21.029Z,101494.91
2023-01-04T10:05:49.432Z,101481.50
2023-01-04T10:08:20.301Z,101486.94
2023-01-04T10:10:51.853Z,101478.88
2023-01-04T10:13:49.582Z,101473.53
2023-01-04T10:16:52.660Z,101481.66
2023-01-04T10:22:27.035Z,101476.09
2023-01-04T10:25:08.622Z,101476.69
2023-01-04T10:27:47.193Z,101458.28
2023-01-04T10:30:36.266Z,101454.59
2023-01-04T10:33:12.094Z,101473.63
2023-01-04T10:35:43.592Z,101481.31
2023-01-04T10:38:20.811Z,101462.03
2023-01-04T10:40:50.638Z,101455.22
2023-01-04T10:44:09.922Z,101457.72
2023-01-04T10:46:28.217Z,101454.81
2023-01-04T10:49:01.803Z,101451.84
2023-01-04T10:51:36.516Z,101453.56
2023-01-04T10:54:11.647Z,101429.94
2023-01-04T10:56:45.733Z,101445.69
2023-01-04T10:59:20.202Z,101437.41
2023-01-04T11:01:55.426Z,101444.25
2023-01-04T11:04:29.033Z,101432.03
2023-01-04T11:07:03.743Z,101439.06
2023-01-04T11:09:39.603Z,101435.97
2023-01-04T11:12:11.290Z,101434.50
2023-01-04T11:14:39.157Z,101433.81
2023-01-04T11:17:11.861Z,101429.31
2023-01-04T11:19:40.880Z,101451.72
2023-01-04T11:22:15.357Z,101436.81
2023-01-04T11:25:07.752Z,101431.66
2023-01-04T11:27:42.957Z,101442.63
2023-01-04T11:30:18.457Z,101449.66
2023-01-04T11:32:55.988Z,101437.00
2023-01-04T11:35:44.138Z,101439.72
2023-01-04T11:38:15.471Z,101447.19
2023-01-04T11:40:55.007Z,101444.50
2023-01-04T11:43:24.085Z,101441.56
2023-01-04T11:45:58.081Z,101437.03
2023-01-04T11:48:42.076Z,101438.91
2023-01-04T11:51:21.993Z,101452.34
2023-01-04T11:53:58.544Z,101442.78
2023-01-04T11:56:29.449Z,101440.94
2023-01-04T11:59:13.962Z,101441.56
2023-01-04T12:01:45.900Z,101447.38
2023-01-04T12:04:19.565Z,101440.34
2023-01-04T12:06:51.853Z,101433.31
2023-01-04T12:09:21.290Z,101431.66
2023-01-04T12:11:51.873Z,101430.81
2023-01-04T12:14:23.665Z,101428.09
2023-01-04T12:17:02.035Z,101423.97
2023-01-04T12:19:31.941Z,101432.25
2023-01-04T12:22:03.454Z,101441.38
2023-01-04T12:24:33.618Z,101447.59
2023-01-04T12:27:02.620Z,101431.44
2023-01-04T12:29:45.941Z,101448.41
2023-01-04T12:32:40.901Z,101448.41
2023-01-04T12:35:42.508Z,101441.16
2023-01-04T12:38:12.256Z,101443.84
2023-01-04T12:40:56.201Z,101432.69
2023-01-04T12:43:28.096Z,101443.47
2023-01-04T12:47:03.996Z,101435.38
2023-01-04T12:50:00.077Z,101427.88
2023-01-04T12:56:00.761Z,101434.75
2023-01-04T12:59:24.657Z,101419.69
2023-01-04T13:02:10.456Z,101416.63
2023-01-04T13:04:42.525Z,101405.44
2023-01-04T13:07:17.163Z,101400.09
2023-01-04T13:09:52.287Z,101407.59
2023-01-04T13:12:44.478Z,101405.72
2023-01-04T13:15:20.945Z,101404.56
2023-01-04T13:17:49.201Z,101407.78
2023-01-04T13:20:20.396Z,101407.91
2023-01-04T13:22:53.007Z,101414.88
2023-01-04T13:25:22.280Z,101403.84
2023-01-04T13:27:59.539Z,101405.81
2023-01-04T13:30:35.705Z,101418.88
2023-01-04T13:33:28.131Z,101417.19
2023-01-04T13:36:04.465Z,101417.78
2023-01-04T13:38:35.449Z,101421.22
2023-01-04T13:41:18.705Z,101407.63
2023-01-04T13:44:02.212Z,101414.34
2023-01-04T13:46:30.067Z,101400.81
2023-01-04T13:49:03.288Z,101417.00
2023-01-04T13:51:37.872Z,101410.63
2023-01-04T13:54:08.067Z,101402.59
2023-01-04T13:56:36.365Z,101408.63
2023-01-04T13:59:05.650Z,101404.13
2023-01-04T14:01:36.553Z,101391.78
2023-01-04T14:04:07.322Z,101397.28
2023-01-04T14:06:40.989Z,101419.06
2023-01-04T14:09:16.291Z,101410.16
2023-01-04T14:12:06.168Z,101413.94
2023-01-04T14:14:49.937Z,101403.84
2023-01-04T14:17:21.837Z,101400.91
2023-01-04T14:19:55.513Z,101402.63
2023-01-04T14:22:29.148Z,101391.69
2023-01-04T14:25:14.805Z,101401.91
2023-01-04T14:27:43.943Z,101390.78
2023-01-04T14:30:26.431Z,101392.38
2023-01-04T14:32:56.041Z,101391.59
2023-01-04T14:35:24.178Z,101391.34
2023-01-04T14:37:52.475Z,101389.75
2023-01-04T14:40:26.827Z,101377.09
2023-01-04T14:42:54.960Z,101391.03
2023-01-04T14:45:22.919Z,101386.19
2023-01-04T14:47:52.392Z,101382.75
2023-01-04T14:50:20.395Z,101384.53
2023-01-04T14:52:52.345Z,101384.22
2023-01-04T14:55:20.885Z,101378.75
2023-01-04T14:57:48.754Z,101397.31
2023-01-04T15:00:19.925Z,101386.81
2023-01-04T15:02:50.779Z,101378.78
2023-01-04T15:05:20.722Z,101391.28
2023-01-04T15:07:48.990Z,101401.09
2023-01-04T15:10:22.307Z,101387.84
2023-01-04T15:12:50.194Z,101399.44
2023-01-04T15:15:18.161Z,101397.19
2023-01-04T15:17:46.056Z,101393.66
2023-01-04T15:20:14.363Z,101393.06
2023-01-04T15:22:43.908Z,101395.16
2023-01-04T15:25:12.556Z,101393.72
2023-01-04T15:27:42.736Z,101392.31
2023-01-04T15:30:12.318Z,101380.38
2023-01-04T15:32:40.777Z,101389.22
2023-01-04T15:35:09.365Z,101388.63
2023-01-04T15:37:37.460Z,101389.88
2023-01-04T15:40:07.731Z,101384.50
2023-01-04T15:42:53.061Z,101393.41
2023-01-04T15:45:22.870Z,101397.34
2023-01-04T15:47:50.725Z,101389.50
2023-01-04T15:50:18.966Z,101369.03
2023-01-04T15:52:46.800Z,101391.81
2023-01-04T15:55:17.476Z,101400.94
2023-01-04T15:57:45.434Z,101405.72
2023-01-04T16:00:14.595Z,101402.41
2023-01-04T16:02:42.813Z,101412.16
2023-01-04T16:05:11.168Z,101396.19
2023-01-04T16:07:39.064Z,101402.63
2023-01-04T16:10:08.124Z,101399.13
2023-01-04T16:12:44.587Z,101379.69
2023-01-04T16:15:15.580Z,101376.94
2023-01-04T16:17:44.383Z,101366.41
2023-01-04T16:20:14.638Z,101365.28
2023-01-04T16:22:43.032Z,101374.44
2023-01-04T16:25:12.519Z,101377.94
2023-01-04T16:27:43.998Z,101363.03
2023-01-04T16:30:14.657Z,101378.81
2023-01-04T16:32:43.753Z,101369.91
2023-01-04T16:35:11.942Z,101362.88
2023-01-04T16:37:39.779Z,101355.63
2023-01-04T16:40:09.519Z,101379.03
2023-01-04T16:42:38.173Z,101383.59
2023-01-04T16:45:08.647Z,101391.47
2023-01-04T16:47:41.850Z,101391.69
2023-01-04T16:50:10.783Z,101378.44
2023-01-04T16:52:38.688Z,101370.66
2023-01-04T16:55:07.875Z,101387.56
2023-01-04T16:57:35.819Z,101406.44
2023-01-04T17:00:04.945Z,101406.44
2023-01-04T17:02:34.286Z,101412.84
2023-01-04T17:05:02.328Z,101416.63
2023-01-04T17:07:32.947Z,101412.03
2023-01-04T17:10:01.629Z,101417.66
2023-01-04T17:12:47.126Z,101405.03
2023-01-04T17:15:42.579Z,101383.00
2023-01-04T17:18:05.616Z,101390.50
2023-01-04T17:20:33.709Z,101381.28
2023-01-04T17:23:01.527Z,101406.75
2023-01-04T17:25:29.402Z,101402.78
2023-01-04T17:27:57.339Z,101409.47
2023-01-04T17:30:25.137Z,101425.03
2023-01-04T17:32:53.212Z,101419.66
2023-01-04T17:35:22.354Z,101425.81
2023-01-04T17:37:50.154Z,101431.94
2023-01-04T17:40:22.932Z,101431.03
2023-01-04T17:42:51.291Z,101420.50
2023-01-04T17:45:19.011Z,101430.09
2023-01-04T17:47:46.794Z,101428.28
2023-01-04T17:50:15.960Z,101425.41
2023-01-04T17:52:45.564Z,101431.25
2023-01-04T17:55:13.528Z,101437.69
2023-01-04T18:00:14.591Z,101439.19
2023-01-04T18:02:43.059Z,101436.91
2023-01-04T18:05:11.927Z,101436.09
2023-01-04T18:07:39.916Z,101438.19
2023-01-04T18:10:20.606Z,101448.97
2023-01-04T18:12:54.696Z,101462.00
2023-01-04T18:15:22.513Z,101468.66
2023-01-04T18:17:50.345Z,101469.31
2023-01-04T18:20:24.597Z,101468.69
2023-01-04T18:22:53.050Z,101483.63
2023-01-04T18:25:22.279Z,101480.91
2023-01-04T18:27:50.095Z,101482.78
2023-01-04T18:30:18.423Z,101474.47
2023-01-04T18:32:46.268Z,101459.13
2023-01-04T18:35:14.178Z,101459.13
2023-01-04T18:37:44.622Z,101452.09
2023-01-04T18:40:13.080Z,101460.41
2023-01-04T18:42:47.000Z,101457.91
2023-01-04T18:45:14.840Z,101460.00
2023-01-04T18:47:42.716Z,101473.16
2023-01-04T18:50:11.172Z,101480.28
2023-01-04T18:52:39.054Z,101475.16
2023-01-04T18:55:07.412Z,101465.00
2023-01-04T18:57:36.356Z,101459.06
2023-01-04T19:00:06.304Z,101462.81
2023-01-04T19:02:34.379Z,101471.22
2023-01-04T19:05:02.651Z,101463.19
2023-01-04T19:07:30.488Z,101483.16
2023-01-04T19:09:58.261Z,101473.09
2023-01-04T19:12:26.046Z,101475.06
2023-01-04T19:14:53.816Z,101478.50
2023-01-04T19:17:24.589Z,101477.13
2023-01-04T19:19:52.722Z,101466.84
2023-01-04T19:22:20.519Z,101457.78
2023-01-04T19:24:48.335Z,101475.44
2023-01-04T19:27:16.167Z,101486.88
2023-01-04T19:29:44.320Z,101480.28
2023-01-04T19:32:12.211Z,101484.47
2023-01-04T19:34:41.526Z,101491.13
2023-01-04T19:37:09.300Z,101487.22
2023-01-04T19:39:37.219Z,101496.78
2023-01-04T19:42:05.194Z,101487.25
2023-01-04T19:44:32.976Z,101484.78
2023-01-04T19:47:00.898Z,101491.44
2023-01-04T19:49:28.878Z,101483.78
2023-01-04T19:51:58.042Z,101486.69
2023-01-04T19:54:26.050Z,101488.56
2023-01-04T19:56:54.366Z,101489.63
2023-01-04T19:59:22.335Z,101497.09
2023-01-04T20:01:50.185Z,101490.03
2023-01-04T20:04:18.375Z,101507.25
2023-01-04T20:06:46.177Z,101497.53
2023-01-04T20:09:15.605Z,101504.78
2023-01-04T20:11:43.409Z,101506.88
2023-01-04T20:14:11.364Z,101506.03
2023-01-04T20:16:39.304Z,101506.03
2023-01-04T20:19:07.130Z,101514.13
2023-01-04T20:21:34.905Z,101512.25
2023-01-04T20:24:02.803Z,101518.91
2023-01-04T20:26:32.021Z,101516.44
2023-01-04T20:29:00.224Z,101519.13
2023-01-04T20:31:28.062Z,101514.56
2023-01-04T20:33:57.084Z,101520.78
2023-01-04T20:36:29.299Z,101521.59
2023-01-04T20:38:59.592Z,101527.44
2023-01-04T20:41:29.241Z,101518.53
2023-01-04T20:43:57.713Z,101519.34
2023-01-04T20:46:27.303Z,101507.78
2023-01-04T20:48:55.839Z,101515.00
2023-01-04T20:51:27.884Z,101509.00
2023-01-04T20:53:55.808Z,101501.63
2023-01-04T20:56:25.964Z,101530.56
2023-01-04T20:58:54.366Z,101524.97
2023-01-04T21:01:25.393Z,101531.59
2023-01-04T21:03:53.426Z,101546.28
2023-01-04T21:06:23.152Z,101542.78
2023-01-04T21:08:52.568Z,101545.91
2023-01-04T21:11:20.559Z,101545.06
2023-01-04T21:13:50.235Z,101529.41
2023-01-04T21:16:18.073Z,101540.94
2023-01-04T21:18:47.377Z,101544.69
2023-01-04T21:21:17.758Z,101551.09
2023-01-04T21:23:46.913Z,101547.84
2023-01-04T21:26:16.733Z,101543.47
2023-01-04T21:28:44.907Z,101534.19
2023-01-04T21:31:13.717Z,101550.75
2023-01-04T21:33:41.491Z,101547.22
2023-01-04T21:36:16.137Z,101545.56
2023-01-04T21:38:44.197Z,101552.59
2023-01-04T21:41:13.732Z,101556.56
2023-01-04T21:43:42.496Z,101546.59
2023-01-04T21:46:12.657Z,101547.44
2023-01-04T21:48:40.513Z,101554.69
2023-01-04T21:51:09.296Z,101552.00
2023-01-04T21:53:39.772Z,101546.59
2023-01-04T21:56:09.540Z,101563.81
2023-01-04T21:58:37.582Z,101554.06
2023-01-04T22:01:10.291Z,101558.44
2023-01-04T22:03:38.274Z,101561.94
2023-01-04T22:06:06.982Z,101552.22
2023-01-04T22:08:35.225Z,101552.22
2023-01-04T22:11:05.029Z,101554.91
2023-01-04T22:13:33.183Z,101557.84
2023-01-04T22:16:01.081Z,101572.31
2023-01-04T22:18:28.900Z,101573.38
2023-01-04T22:21:02.753Z,101577.72
2023-01-04T22:23:31.055Z,101566.09
2023-01-04T22:25:59.038Z,101563.41
2023-01-04T22:28:33.247Z,101576.06
2023-01-04T22:31:06.527Z,101572.31
2023-01-04T22:33:36.227Z,101575.44
2023-01-04T22:36:06.244Z,101575.47
2023-01-04T22:38:36.000Z,101582.69
2023-01-04T22:41:07.299Z,101586.44
2023-01-04T22:43:36.683Z,101596.38
2023-01-04T22:46:06.255Z,101600.34
2023-01-04T22:48:34.589Z,101591.22
2023-01-04T22:51:06.777Z,101599.06
2023-01-04T22:53:34.582Z,101599.06
2023-01-04T22:56:22.348Z,101606.53
2023-01-04T22:58:55.160Z,101590.38
2023-01-04T23:01:24.088Z,101572.81
2023-01-04T23:03:52.852Z,101603.22
2023-01-04T23:06:21.279Z,101597.84
2023-01-04T23:08:49.829Z,101604.28
2023-01-04T23:11:20.196Z,101599.94
2023-01-04T23:13:47.999Z,101600.13
2023-01-04T23:16:17.965Z,101594.16
2023-01-04T23:18:45.798Z,101609.88
2023-01-04T23:21:14.461Z,101619.81
2023-01-04T23:23:42.629Z,101619.00
2023-01-04T23:26:15.125Z,101614.03
2023-01-04T23:28:42.984Z,101617.56
2023-01-04T23:31:13.491Z,101622.13
2023-01-04T23:33:43.241Z,101600.56
2023-01-04T23:36:12.882Z,101600.78
2023-01-04T23:38:41.787Z,101612.38
2023-01-04T23:41:10.227Z,101615.06
2023-01-04T23:43:39.810Z,101632.28
2023-01-04T23:48:36.586Z,101634.97
2023-01-04T23:51:06.370Z,101642.22
2023-01-04T23:53:34.768Z,101650.50
2023-01-04T23:56:05.607Z,101645.13
2023-01-04T23:58:34.059Z,101636.22
